sensor_id;sensor_type;location;lat;lon;timestamp;P1;durP1;ratioP1;P2;durP2;ratioP2
30896;SDS011;64229;52.246;21.054;2023-01-23T00:01:44;29.35;;;11.70;;
30896;SDS011;64229;52.246;21.054;2023-01-23T00:04:11;32.70;;;12.07;;
30896;SDS011;64229;52.246;21.054;2023-01-23T00:06:38;30.70;;;12.73;;
30896;SDS011;64229;52.246;21.054;2023-01-23T00:09:05;25.90;;;11.80;;
30896;SDS011;64229;52.246;21.054;2023-01-23T00:11:31;33.28;;;12.57;;
30896;SDS011;64229;52.246;21.054;2023-01-23T00:13:57;29.60;;;11.95;;
30896;SDS011;64229;52.246;21.054;2023-01-23T00:16:24;35.13;;;12.30;;
30896;SDS011;64229;52.246;21.054;2023-01-23T00:18:52;30.60;;;12.43;;
30896;SDS011;64229;52.246;21.054;2023-01-23T00:21:21;34.33;;;13.05;;
30896;SDS011;64229;52.246;21.054;2023-01-23T00:23:49;36.10;;;12.45;;
30896;SDS011;64229;52.246;21.054;2023-01-23T00:26:17;35.78;;;12.40;;
30896;SDS011;64229;52.246;21.054;2023-01-23T00:28:45;28.25;;;12.00;;
30896;SDS011;64229;52.246;21.054;2023-01-23T00:31:13;31.58;;;13.23;;
30896;SDS011;64229;52.246;21.054;2023-01-23T00:33:40;31.00;;;11.75;;
30896;SDS011;64229;52.246;21.054;2023-01-23T00:36:07;27.05;;;11.73;;
30896;SDS011;64229;52.246;21.054;2023-01-23T00:38:33;33.40;;;12.18;;
30896;SDS011;64229;52.246;21.054;2023-01-23T00:40:59;32.65;;;12.98;;
30896;SDS011;64229;52.246;21.054;2023-01-23T00:43:26;28.23;;;11.55;;
30896;SDS011;64229;52.246;21.054;2023-01-23T00:45:52;30.98;;;12.15;;
30896;SDS011;64229;52.246;21.054;2023-01-23T00:48:18;32.13;;;12.80;;
30896;SDS011;64229;52.246;21.054;2023-01-23T00:50:43;28.42;;;12.45;;
30896;SDS011;64229;52.246;21.054;2023-01-23T00:53:09;34.47;;;13.40;;
30896;SDS011;64229;52.246;21.054;2023-01-23T00:55:36;30.23;;;11.98;;
30896;SDS011;64229;52.246;21.054;2023-01-23T00:58:02;41.22;;;13.20;;
30896;SDS011;64229;52.246;21.054;2023-01-23T01:00:28;30.15;;;12.45;;
30896;SDS011;64229;52.246;21.054;2023-01-23T01:02:53;30.30;;;13.13;;
30896;SDS011;64229;52.246;21.054;2023-01-23T01:05:19;33.05;;;11.73;;
30896;SDS011;64229;52.246;21.054;2023-01-23T01:07:44;34.63;;;12.68;;
30896;SDS011;64229;52.246;21.054;2023-01-23T01:10:10;35.40;;;12.93;;
30896;SDS011;64229;52.246;21.054;2023-01-23T01:12:36;33.38;;;13.30;;
30896;SDS011;64229;52.246;21.054;2023-01-23T01:15:02;35.38;;;13.27;;
30896;SDS011;64229;52.246;21.054;2023-01-23T01:17:28;35.50;;;13.13;;
30896;SDS011;64229;52.246;21.054;2023-01-23T01:19:53;35.38;;;13.48;;
30896;SDS011;64229;52.246;21.054;2023-01-23T01:22:19;34.00;;;13.40;;
30896;SDS011;64229;52.246;21.054;2023-01-23T01:24:44;34.00;;;13.10;;
30896;SDS011;64229;52.246;21.054;2023-01-23T01:27:10;37.42;;;12.73;;
30896;SDS011;64229;52.246;21.054;2023-01-23T01:29:36;37.20;;;14.77;;
30896;SDS011;64229;52.246;21.054;2023-01-23T01:32:01;34.67;;;13.75;;
30896;SDS011;64229;52.246;21.054;2023-01-23T01:34:27;32.88;;;13.10;;
30896;SDS011;64229;52.246;21.054;2023-01-23T01:36:52;38.65;;;13.07;;
30896;SDS011;64229;52.246;21.054;2023-01-23T01:39:18;36.70;;;14.07;;
30896;SDS011;64229;52.246;21.054;2023-01-23T01:41:43;34.28;;;13.98;;
30896;SDS011;64229;52.246;21.054;2023-01-23T01:44:14;38.63;;;14.02;;
30896;SDS011;64229;52.246;21.054;2023-01-23T01:46:42;34.35;;;13.55;;
30896;SDS011;64229;52.246;21.054;2023-01-23T01:49:11;31.15;;;14.85;;
30896;SDS011;64229;52.246;21.054;2023-01-23T01:51:43;34.47;;;14.13;;
30896;SDS011;64229;52.246;21.054;2023-01-23T01:56:48;37.70;;;14.20;;
30896;SDS011;64229;52.246;21.054;2023-01-23T01:59:19;39.80;;;13.63;;
30896;SDS011;64229;52.246;21.054;2023-01-23T02:01:49;35.20;;;13.77;;
30896;SDS011;64229;52.246;21.054;2023-01-23T02:04:20;42.70;;;14.32;;
30896;SDS011;64229;52.246;21.054;2023-01-23T02:06:45;32.95;;;13.40;;
30896;SDS011;64229;52.246;21.054;2023-01-23T02:09:15;35.85;;;14.05;;
30896;SDS011;64229;52.246;21.054;2023-01-23T02:11:44;36.55;;;13.90;;
30896;SDS011;64229;52.246;21.054;2023-01-23T02:14:10;35.38;;;14.65;;
30896;SDS011;64229;52.246;21.054;2023-01-23T02:16:36;41.20;;;14.73;;
30896;SDS011;64229;52.246;21.054;2023-01-23T02:19:53;42.53;;;15.02;;
30896;SDS011;64229;52.246;21.054;2023-01-23T02:25:16;35.55;;;14.27;;
30896;SDS011;64229;52.246;21.054;2023-01-23T02:27:46;33.72;;;14.20;;
30896;SDS011;64229;52.246;21.054;2023-01-23T02:30:12;38.17;;;13.85;;
30896;SDS011;64229;52.246;21.054;2023-01-23T02:32:39;36.70;;;14.40;;
30896;SDS011;64229;52.246;21.054;2023-01-23T02:35:09;38.55;;;13.80;;
30896;SDS011;64229;52.246;21.054;2023-01-23T02:37:39;36.10;;;14.65;;
30896;SDS011;64229;52.246;21.054;2023-01-23T02:40:09;41.58;;;13.82;;
30896;SDS011;64229;52.246;21.054;2023-01-23T02:42:36;35.58;;;13.73;;
30896;SDS011;64229;52.246;21.054;2023-01-23T02:45:07;35.42;;;13.27;;
30896;SDS011;64229;52.246;21.054;2023-01-23T02:47:33;34.70;;;13.75;;
30896;SDS011;64229;52.246;21.054;2023-01-23T02:49:58;38.92;;;13.98;;
30896;SDS011;64229;52.246;21.054;2023-01-23T02:52:24;39.25;;;14.75;;
30896;SDS011;64229;52.246;21.054;2023-01-23T02:54:49;38.97;;;14.27;;
30896;SDS011;64229;52.246;21.054;2023-01-23T02:57:15;36.17;;;12.82;;
30896;SDS011;64229;52.246;21.054;2023-01-23T02:59:40;35.88;;;12.35;;
30896;SDS011;64229;52.246;21.054;2023-01-23T03:02:24;39.22;;;14.27;;
30896;SDS011;64229;52.246;21.054;2023-01-23T03:04:51;40.75;;;15.73;;
30896;SDS011;64229;52.246;21.054;2023-01-23T03:07:17;40.90;;;13.43;;
30896;SDS011;64229;52.246;21.054;2023-01-23T03:09:42;40.53;;;15.75;;
30896;SDS011;64229;52.246;21.054;2023-01-23T03:12:11;43.20;;;13.85;;
30896;SDS011;64229;52.246;21.054;2023-01-23T03:14:39;34.25;;;12.90;;
30896;SDS011;64229;52.246;21.054;2023-01-23T03:17:04;43.97;;;15.43;;
30896;SDS011;64229;52.246;21.054;2023-01-23T03:19:30;40.85;;;14.57;;
30896;SDS011;64229;52.246;21.054;2023-01-23T03:21:55;41.15;;;14.45;;
30896;SDS011;64229;52.246;21.054;2023-01-23T03:24:21;41.65;;;14.57;;
30896;SDS011;64229;52.246;21.054;2023-01-23T03:26:47;38.20;;;15.00;;
30896;SDS011;64229;52.246;21.054;2023-01-23T03:29:14;43.00;;;14.43;;
30896;SDS011;64229;52.246;21.054;2023-01-23T03:32:00;45.70;;;14.95;;
30896;SDS011;64229;52.246;21.054;2023-01-23T03:34:26;42.60;;;14.82;;
30896;SDS011;64229;52.246;21.054;2023-01-23T03:36:52;42.97;;;14.63;;
30896;SDS011;64229;52.246;21.054;2023-01-23T03:39:17;49.78;;;14.90;;
30896;SDS011;64229;52.246;21.054;2023-01-23T03:42:01;35.15;;;14.40;;
30896;SDS011;64229;52.246;21.054;2023-01-23T03:44:27;36.70;;;13.73;;
30896;SDS011;64229;52.246;21.054;2023-01-23T03:46:52;45.47;;;15.60;;
30896;SDS011;64229;52.246;21.054;2023-01-23T03:49:18;37.00;;;13.43;;
30896;SDS011;64229;52.246;21.054;2023-01-23T03:51:44;40.63;;;14.35;;
30896;SDS011;64229;52.246;21.054;2023-01-23T03:54:09;46.67;;;14.32;;
30896;SDS011;64229;52.246;21.054;2023-01-23T03:56:36;39.70;;;14.63;;
30896;SDS011;64229;52.246;21.054;2023-01-23T03:59:02;38.97;;;13.60;;
30896;SDS011;64229;52.246;21.054;2023-01-23T04:01:27;40.95;;;14.25;;
30896;SDS011;64229;52.246;21.054;2023-01-23T04:03:53;51.97;;;16.58;;
30896;SDS011;64229;52.246;21.054;2023-01-23T04:06:18;43.47;;;15.90;;
30896;SDS011;64229;52.246;21.054;2023-01-23T04:08:44;46.42;;;14.70;;
30896;SDS011;64229;52.246;21.054;2023-01-23T04:11:10;40.53;;;14.85;;
30896;SDS011;64229;52.246;21.054;2023-01-23T04:13:36;46.40;;;16.73;;
30896;SDS011;64229;52.246;21.054;2023-01-23T04:16:02;39.67;;;14.88;;
30896;SDS011;64229;52.246;21.054;2023-01-23T04:18:29;43.58;;;14.45;;
30896;SDS011;64229;52.246;21.054;2023-01-23T04:20:54;40.35;;;14.80;;
30896;SDS011;64229;52.246;21.054;2023-01-23T04:23:21;46.63;;;15.45;;
30896;SDS011;64229;52.246;21.054;2023-01-23T04:25:47;47.17;;;15.55;;
30896;SDS011;64229;52.246;21.054;2023-01-23T04:28:12;49.28;;;15.57;;
30896;SDS011;64229;52.246;21.054;2023-01-23T04:30:38;41.78;;;15.43;;
30896;SDS011;64229;52.246;21.054;2023-01-23T04:33:04;41.47;;;14.98;;
30896;SDS011;64229;52.246;21.054;2023-01-23T04:35:29;42.20;;;14.43;;
30896;SDS011;64229;52.246;21.054;2023-01-23T04:37:55;41.35;;;14.10;;
30896;SDS011;64229;52.246;21.054;2023-01-23T04:40:20;40.08;;;15.20;;
30896;SDS011;64229;52.246;21.054;2023-01-23T04:42:46;40.67;;;14.75;;
30896;SDS011;64229;52.246;21.054;2023-01-23T04:45:11;44.85;;;14.55;;
30896;SDS011;64229;52.246;21.054;2023-01-23T04:47:37;38.35;;;14.27;;
30896;SDS011;64229;52.246;21.054;2023-01-23T04:50:02;46.75;;;15.15;;
30896;SDS011;64229;52.246;21.054;2023-01-23T04:52:28;41.28;;;15.07;;
30896;SDS011;64229;52.246;21.054;2023-01-23T04:54:54;37.85;;;14.68;;
30896;SDS011;64229;52.246;21.054;2023-01-23T04:57:19;42.92;;;15.38;;
30896;SDS011;64229;52.246;21.054;2023-01-23T04:59:45;37.20;;;14.90;;
30896;SDS011;64229;52.246;21.054;2023-01-23T05:02:10;43.28;;;15.13;;
30896;SDS011;64229;52.246;21.054;2023-01-23T05:04:36;40.65;;;14.20;;
30896;SDS011;64229;52.246;21.054;2023-01-23T05:07:02;41.90;;;13.45;;
30896;SDS011;64229;52.246;21.054;2023-01-23T05:09:28;39.53;;;14.43;;
30896;SDS011;64229;52.246;21.054;2023-01-23T05:11:53;36.33;;;14.23;;
30896;SDS011;64229;52.246;21.054;2023-01-23T05:14:18;38.33;;;13.65;;
30896;SDS011;64229;52.246;21.054;2023-01-23T05:16:46;39.40;;;14.43;;
30896;SDS011;64229;52.246;21.054;2023-01-23T05:19:11;44.20;;;16.20;;
30896;SDS011;64229;52.246;21.054;2023-01-23T05:21:37;38.75;;;14.05;;
30896;SDS011;64229;52.246;21.054;2023-01-23T05:24:03;47.42;;;15.95;;
30896;SDS011;64229;52.246;21.054;2023-01-23T05:26:28;43.53;;;15.27;;
30896;SDS011;64229;52.246;21.054;2023-01-23T05:28:54;41.85;;;14.43;;
30896;SDS011;64229;52.246;21.054;2023-01-23T05:31:19;46.58;;;16.77;;
30896;SDS011;64229;52.246;21.054;2023-01-23T05:33:45;41.80;;;14.63;;
30896;SDS011;64229;52.246;21.054;2023-01-23T05:36:10;44.28;;;13.80;;
30896;SDS011;64229;52.246;21.054;2023-01-23T05:38:36;40.60;;;13.98;;
30896;SDS011;64229;52.246;21.054;2023-01-23T05:41:01;45.50;;;15.93;;
30896;SDS011;64229;52.246;21.054;2023-01-23T05:43:28;44.55;;;14.07;;
30896;SDS011;64229;52.246;21.054;2023-01-23T05:45:53;37.55;;;14.38;;
30896;SDS011;64229;52.246;21.054;2023-01-23T05:48:19;46.70;;;14.65;;
30896;SDS011;64229;52.246;21.054;2023-01-23T05:50:44;36.42;;;13.65;;
30896;SDS011;64229;52.246;21.054;2023-01-23T05:53:10;43.38;;;13.73;;
30896;SDS011;64229;52.246;21.054;2023-01-23T05:55:38;37.65;;;15.18;;
30896;SDS011;64229;52.246;21.054;2023-01-23T05:58:03;42.75;;;15.10;;
30896;SDS011;64229;52.246;21.054;2023-01-23T06:00:29;39.97;;;13.68;;
30896;SDS011;64229;52.246;21.054;2023-01-23T06:02:54;44.20;;;15.07;;
30896;SDS011;64229;52.246;21.054;2023-01-23T06:05:19;42.13;;;14.60;;
30896;SDS011;64229;52.246;21.054;2023-01-23T06:07:45;36.78;;;14.48;;
30896;SDS011;64229;52.246;21.054;2023-01-23T06:10:10;50.47;;;15.70;;
30896;SDS011;64229;52.246;21.054;2023-01-23T06:12:36;41.15;;;14.63;;
30896;SDS011;64229;52.246;21.054;2023-01-23T06:15:01;38.92;;;13.90;;
30896;SDS011;64229;52.246;21.054;2023-01-23T06:17:27;39.88;;;14.05;;
30896;SDS011;64229;52.246;21.054;2023-01-23T06:19:53;38.03;;;15.00;;
30896;SDS011;64229;52.246;21.054;2023-01-23T06:22:18;40.20;;;13.98;;
30896;SDS011;64229;52.246;21.054;2023-01-23T06:24:44;46.17;;;15.15;;
30896;SDS011;64229;52.246;21.054;2023-01-23T06:27:09;46.05;;;15.43;;
30896;SDS011;64229;52.246;21.054;2023-01-23T06:29:35;42.50;;;15.75;;
30896;SDS011;64229;52.246;21.054;2023-01-23T06:32:01;39.10;;;14.23;;
30896;SDS011;64229;52.246;21.054;2023-01-23T06:34:27;36.15;;;14.65;;
30896;SDS011;64229;52.246;21.054;2023-01-23T06:36:53;36.72;;;14.63;;
30896;SDS011;64229;52.246;21.054;2023-01-23T06:39:18;41.45;;;15.85;;
30896;SDS011;64229;52.246;21.054;2023-01-23T06:41:44;34.17;;;15.15;;
30896;SDS011;64229;52.246;21.054;2023-01-23T06:44:09;40.95;;;15.68;;
30896;SDS011;64229;52.246;21.054;2023-01-23T06:46:35;42.63;;;16.08;;
30896;SDS011;64229;52.246;21.054;2023-01-23T06:49:01;39.67;;;15.48;;
30896;SDS011;64229;52.246;21.054;2023-01-23T06:51:28;38.22;;;14.48;;
30896;SDS011;64229;52.246;21.054;2023-01-23T06:53:53;36.20;;;15.27;;
30896;SDS011;64229;52.246;21.054;2023-01-23T06:56:20;42.15;;;15.75;;
30896;SDS011;64229;52.246;21.054;2023-01-23T06:58:46;39.88;;;14.85;;
30896;SDS011;64229;52.246;21.054;2023-01-23T07:01:13;40.63;;;14.93;;
30896;SDS011;64229;52.246;21.054;2023-01-23T07:03:41;40.47;;;16.02;;
30896;SDS011;64229;52.246;21.054;2023-01-23T07:06:09;38.55;;;14.93;;
30896;SDS011;64229;52.246;21.054;2023-01-23T07:08:36;37.28;;;15.73;;
30896;SDS011;64229;52.246;21.054;2023-01-23T07:11:02;41.47;;;15.88;;
30896;SDS011;64229;52.246;21.054;2023-01-23T07:13:28;37.38;;;16.15;;
30896;SDS011;64229;52.246;21.054;2023-01-23T07:15:53;42.00;;;15.55;;
30896;SDS011;64229;52.246;21.054;2023-01-23T07:18:19;43.22;;;15.88;;
30896;SDS011;64229;52.246;21.054;2023-01-23T07:20:45;41.78;;;16.17;;
30896;SDS011;64229;52.246;21.054;2023-01-23T07:23:11;44.03;;;16.63;;
30896;SDS011;64229;52.246;21.054;2023-01-23T07:25:37;44.08;;;16.63;;
30896;SDS011;64229;52.246;21.054;2023-01-23T07:28:03;43.33;;;16.25;;
30896;SDS011;64229;52.246;21.054;2023-01-23T07:30:28;52.35;;;19.45;;
30896;SDS011;64229;52.246;21.054;2023-01-23T07:32:54;50.03;;;19.88;;
30896;SDS011;64229;52.246;21.054;2023-01-23T07:35:19;57.65;;;23.80;;
30896;SDS011;64229;52.246;21.054;2023-01-23T07:37:46;55.58;;;23.88;;
30896;SDS011;64229;52.246;21.054;2023-01-23T07:40:11;60.40;;;26.50;;
30896;SDS011;64229;52.246;21.054;2023-01-23T07:42:37;65.68;;;25.77;;
30896;SDS011;64229;52.246;21.054;2023-01-23T07:45:04;58.10;;;23.45;;
30896;SDS011;64229;52.246;21.054;2023-01-23T07:47:30;52.30;;;21.23;;
30896;SDS011;64229;52.246;21.054;2023-01-23T07:49:56;47.03;;;18.23;;
30896;SDS011;64229;52.246;21.054;2023-01-23T07:52:22;41.50;;;18.00;;
30896;SDS011;64229;52.246;21.054;2023-01-23T07:54:48;40.10;;;15.95;;
30896;SDS011;64229;52.246;21.054;2023-01-23T07:57:14;45.22;;;16.73;;
30896;SDS011;64229;52.246;21.054;2023-01-23T07:59:39;37.58;;;15.32;;
30896;SDS011;64229;52.246;21.054;2023-01-23T08:02:05;40.75;;;15.80;;
30896;SDS011;64229;52.246;21.054;2023-01-23T08:04:30;39.50;;;15.82;;
30896;SDS011;64229;52.246;21.054;2023-01-23T08:06:55;39.22;;;16.60;;
30896;SDS011;64229;52.246;21.054;2023-01-23T08:09:21;47.10;;;17.40;;
30896;SDS011;64229;52.246;21.054;2023-01-23T08:11:46;41.22;;;16.40;;
30896;SDS011;64229;52.246;21.054;2023-01-23T08:14:16;46.00;;;16.27;;
30896;SDS011;64229;52.246;21.054;2023-01-23T08:16:41;41.83;;;16.42;;
30896;SDS011;64229;52.246;21.054;2023-01-23T08:19:07;42.88;;;16.67;;
30896;SDS011;64229;52.246;21.054;2023-01-23T08:21:32;41.65;;;16.48;;
30896;SDS011;64229;52.246;21.054;2023-01-23T08:23:59;41.38;;;16.65;;
30896;SDS011;64229;52.246;21.054;2023-01-23T08:26:26;40.60;;;15.85;;
30896;SDS011;64229;52.246;21.054;2023-01-23T08:28:51;40.53;;;16.55;;
30896;SDS011;64229;52.246;21.054;2023-01-23T08:31:17;38.92;;;16.55;;
30896;SDS011;64229;52.246;21.054;2023-01-23T08:33:42;41.13;;;15.60;;
30896;SDS011;64229;52.246;21.054;2023-01-23T08:36:09;41.72;;;16.35;;
30896;SDS011;64229;52.246;21.054;2023-01-23T08:38:36;44.50;;;17.73;;
30896;SDS011;64229;52.246;21.054;2023-01-23T08:41:02;51.83;;;17.30;;
30896;SDS011;64229;52.246;21.054;2023-01-23T08:43:29;46.47;;;17.50;;
30896;SDS011;64229;52.246;21.054;2023-01-23T08:45:56;45.92;;;16.50;;
30896;SDS011;64229;52.246;21.054;2023-01-23T08:48:23;39.00;;;16.77;;
30896;SDS011;64229;52.246;21.054;2023-01-23T08:50:50;43.45;;;17.55;;
30896;SDS011;64229;52.246;21.054;2023-01-23T08:53:21;44.28;;;17.63;;
30896;SDS011;64229;52.246;21.054;2023-01-23T08:55:47;50.92;;;18.00;;
30896;SDS011;64229;52.246;21.054;2023-01-23T08:58:12;45.65;;;17.17;;
30896;SDS011;64229;52.246;21.054;2023-01-23T09:00:38;41.45;;;17.08;;
30896;SDS011;64229;52.246;21.054;2023-01-23T09:03:05;42.30;;;17.90;;
30896;SDS011;64229;52.246;21.054;2023-01-23T09:05:30;45.75;;;17.27;;
30896;SDS011;64229;52.246;21.054;2023-01-23T09:07:57;48.75;;;18.45;;
30896;SDS011;64229;52.246;21.054;2023-01-23T09:10:23;43.60;;;17.45;;
30896;SDS011;64229;52.246;21.054;2023-01-23T09:12:53;43.30;;;18.77;;
30896;SDS011;64229;52.246;21.054;2023-01-23T09:15:19;43.25;;;17.27;;
30896;SDS011;64229;52.246;21.054;2023-01-23T09:17:46;40.15;;;16.70;;
30896;SDS011;64229;52.246;21.054;2023-01-23T09:20:12;44.55;;;17.85;;
30896;SDS011;64229;52.246;21.054;2023-01-23T09:22:39;45.45;;;19.08;;
30896;SDS011;64229;52.246;21.054;2023-01-23T09:25:05;52.50;;;18.90;;
30896;SDS011;64229;52.246;21.054;2023-01-23T09:27:31;48.47;;;19.20;;
30896;SDS011;64229;52.246;21.054;2023-01-23T09:29:56;47.60;;;18.67;;
30896;SDS011;64229;52.246;21.054;2023-01-23T09:32:21;52.28;;;18.80;;
30896;SDS011;64229;52.246;21.054;2023-01-23T09:34:47;49.53;;;18.58;;
30896;SDS011;64229;52.246;21.054;2023-01-23T09:37:13;46.90;;;17.70;;
30896;SDS011;64229;52.246;21.054;2023-01-23T09:39:41;46.15;;;16.95;;
30896;SDS011;64229;52.246;21.054;2023-01-23T09:42:16;44.10;;;18.23;;
30896;SDS011;64229;52.246;21.054;2023-01-23T09:44:46;54.85;;;19.90;;
30896;SDS011;64229;52.246;21.054;2023-01-23T09:47:19;50.10;;;17.70;;
30896;SDS011;64229;52.246;21.054;2023-01-23T09:50:03;49.42;;;19.00;;
30896;SDS011;64229;52.246;21.054;2023-01-23T09:52:36;44.08;;;17.70;;
30896;SDS011;64229;52.246;21.054;2023-01-23T09:57:56;47.38;;;19.05;;
30896;SDS011;64229;52.246;21.054;2023-01-23T10:02:51;46.58;;;19.50;;
30896;SDS011;64229;52.246;21.054;2023-01-23T10:05:20;52.55;;;19.20;;
30896;SDS011;64229;52.246;21.054;2023-01-23T10:13:07;45.25;;;19.08;;
30896;SDS011;64229;52.246;21.054;2023-01-23T10:15:55;46.30;;;18.85;;
30896;SDS011;64229;52.246;21.054;2023-01-23T10:26:33;44.83;;;18.58;;
30896;SDS011;64229;52.246;21.054;2023-01-23T10:31:57;41.17;;;17.52;;
30896;SDS011;64229;52.246;21.054;2023-01-23T10:34:34;42.28;;;18.13;;
30896;SDS011;64229;52.246;21.054;2023-01-23T10:37:14;48.33;;;17.08;;
30896;SDS011;64229;52.246;21.054;2023-01-23T10:40:02;51.30;;;18.02;;
30896;SDS011;64229;52.246;21.054;2023-01-23T10:42:32;41.38;;;17.52;;
30896;SDS011;64229;52.246;21.054;2023-01-23T10:44:57;41.42;;;17.23;;
30896;SDS011;64229;52.246;21.054;2023-01-23T10:47:36;45.28;;;17.92;;
30896;SDS011;64229;52.246;21.054;2023-01-23T10:50:07;38.35;;;17.23;;
30896;SDS011;64229;52.246;21.054;2023-01-23T10:52:35;41.83;;;17.33;;
30896;SDS011;64229;52.246;21.054;2023-01-23T10:55:29;41.45;;;16.00;;
30896;SDS011;64229;52.246;21.054;2023-01-23T10:57:56;45.67;;;17.20;;
30896;SDS011;64229;52.246;21.054;2023-01-23T11:00:29;38.53;;;16.35;;
30896;SDS011;64229;52.246;21.054;2023-01-23T11:03:16;42.92;;;16.15;;
30896;SDS011;64229;52.246;21.054;2023-01-23T11:05:52;39.15;;;16.17;;
30896;SDS011;64229;52.246;21.054;2023-01-23T11:08:29;39.05;;;15.90;;
30896;SDS011;64229;52.246;21.054;2023-01-23T11:13:38;42.95;;;15.23;;
30896;SDS011;64229;52.246;21.054;2023-01-23T11:16:04;40.53;;;16.27;;
30896;SDS011;64229;52.246;21.054;2023-01-23T11:18:33;39.78;;;15.43;;
30896;SDS011;64229;52.246;21.054;2023-01-23T11:21:04;39.80;;;16.27;;
30896;SDS011;64229;52.246;21.054;2023-01-23T11:23:29;38.55;;;15.35;;
30896;SDS011;64229;52.246;21.054;2023-01-23T11:25:57;37.05;;;15.02;;
30896;SDS011;64229;52.246;21.054;2023-01-23T11:28:33;46.45;;;16.52;;
30896;SDS011;64229;52.246;21.054;2023-01-23T11:34:04;35.38;;;14.27;;
30896;SDS011;64229;52.246;21.054;2023-01-23T11:42:14;27.33;;;11.02;;
30896;SDS011;64229;52.246;21.054;2023-01-23T11:44:42;38.80;;;15.60;;
30896;SDS011;64229;52.246;21.054;2023-01-23T11:52:24;38.40;;;14.38;;
30896;SDS011;64229;52.246;21.054;2023-01-23T12:00:43;36.22;;;15.55;;
30896;SDS011;64229;52.246;21.054;2023-01-23T12:11:35;38.00;;;14.48;;
30896;SDS011;64229;52.246;21.054;2023-01-23T12:14:47;36.15;;;14.65;;
30896;SDS011;64229;52.246;21.054;2023-01-23T12:17:18;36.60;;;15.77;;
30896;SDS011;64229;52.246;21.054;2023-01-23T12:25:59;48.97;;;16.67;;
30896;SDS011;64229;52.246;21.054;2023-01-23T12:28:54;49.42;;;18.40;;
30896;SDS011;64229;52.246;21.054;2023-01-23T12:42:01;46.22;;;17.52;;
30896;SDS011;64229;52.246;21.054;2023-01-23T12:44:33;42.38;;;17.05;;
30896;SDS011;64229;52.246;21.054;2023-01-23T12:47:07;42.42;;;16.27;;
30896;SDS011;64229;52.246;21.054;2023-01-23T12:52:14;38.95;;;16.83;;
30896;SDS011;64229;52.246;21.054;2023-01-23T12:54:48;44.40;;;17.60;;
30896;SDS011;64229;52.246;21.054;2023-01-23T12:57:15;44.55;;;17.60;;
30896;SDS011;64229;52.246;21.054;2023-01-23T13:00:06;42.05;;;16.65;;
30896;SDS011;64229;52.246;21.054;2023-01-23T13:02:52;42.25;;;18.45;;
30896;SDS011;64229;52.246;21.054;2023-01-23T13:05:42;38.28;;;16.67;;
30896;SDS011;64229;52.246;21.054;2023-01-23T13:16:50;41.97;;;17.48;;
30896;SDS011;64229;52.246;21.054;2023-01-23T13:19:24;47.42;;;19.75;;
30896;SDS011;64229;52.246;21.054;2023-01-23T13:22:12;46.17;;;17.88;;
30896;SDS011;64229;52.246;21.054;2023-01-23T13:24:51;51.17;;;19.10;;
30896;SDS011;64229;52.246;21.054;2023-01-23T13:32:59;45.60;;;19.35;;
30896;SDS011;64229;52.246;21.054;2023-01-23T13:48:58;52.92;;;20.10;;
30896;SDS011;64229;52.246;21.054;2023-01-23T13:52:11;51.47;;;20.20;;
30896;SDS011;64229;52.246;21.054;2023-01-23T13:54:57;43.55;;;18.48;;
30896;SDS011;64229;52.246;21.054;2023-01-23T13:57:46;49.25;;;20.33;;
30896;SDS011;64229;52.246;21.054;2023-01-23T14:00:15;43.88;;;18.60;;
30896;SDS011;64229;52.246;21.054;2023-01-23T14:02:52;50.25;;;20.00;;
30896;SDS011;64229;52.246;21.054;2023-01-23T14:05:40;41.70;;;17.77;;
30896;SDS011;64229;52.246;21.054;2023-01-23T14:08:11;41.70;;;18.90;;
30896;SDS011;64229;52.246;21.054;2023-01-23T14:10:43;45.47;;;18.15;;
30896;SDS011;64229;52.246;21.054;2023-01-23T14:13:12;41.53;;;18.00;;
30896;SDS011;64229;52.246;21.054;2023-01-23T14:15:39;42.35;;;18.77;;
30896;SDS011;64229;52.246;21.054;2023-01-23T14:18:53;39.90;;;17.63;;
30896;SDS011;64229;52.246;21.054;2023-01-23T14:21:27;47.88;;;18.42;;
30896;SDS011;64229;52.246;21.054;2023-01-23T14:23:57;45.13;;;18.00;;
30896;SDS011;64229;52.246;21.054;2023-01-23T14:26:32;40.72;;;17.67;;
30896;SDS011;64229;52.246;21.054;2023-01-23T14:31:47;54.67;;;20.98;;
30896;SDS011;64229;52.246;21.054;2023-01-23T14:34:18;45.67;;;19.50;;
30896;SDS011;64229;52.246;21.054;2023-01-23T14:36:48;43.38;;;19.20;;
30896;SDS011;64229;52.246;21.054;2023-01-23T14:39:25;48.17;;;18.60;;
30896;SDS011;64229;52.246;21.054;2023-01-23T14:41:57;40.10;;;17.50;;
30896;SDS011;64229;52.246;21.054;2023-01-23T14:44:24;45.75;;;19.33;;
30896;SDS011;64229;52.246;21.054;2023-01-23T14:46:55;41.70;;;18.05;;
30896;SDS011;64229;52.246;21.054;2023-01-23T14:49:24;40.88;;;18.35;;
30896;SDS011;64229;52.246;21.054;2023-01-23T14:51:56;42.83;;;17.92;;
30896;SDS011;64229;52.246;21.054;2023-01-23T14:54:27;43.75;;;17.15;;
30896;SDS011;64229;52.246;21.054;2023-01-23T14:56:53;49.92;;;19.70;;
30896;SDS011;64229;52.246;21.054;2023-01-23T15:02:01;44.38;;;18.45;;
30896;SDS011;64229;52.246;21.054;2023-01-23T15:04:28;45.35;;;18.48;;
30896;SDS011;64229;52.246;21.054;2023-01-23T15:06:56;47.97;;;18.85;;
30896;SDS011;64229;52.246;21.054;2023-01-23T15:09:32;39.22;;;18.05;;
30896;SDS011;64229;52.246;21.054;2023-01-23T15:12:06;46.55;;;17.83;;
30896;SDS011;64229;52.246;21.054;2023-01-23T15:14:37;42.88;;;18.48;;
30896;SDS011;64229;52.246;21.054;2023-01-23T15:17:05;39.92;;;18.77;;
30896;SDS011;64229;52.246;21.054;2023-01-23T15:19:37;39.72;;;17.25;;
30896;SDS011;64229;52.246;21.054;2023-01-23T15:22:14;47.63;;;18.92;;
30896;SDS011;64229;52.246;21.054;2023-01-23T15:24:43;43.40;;;18.63;;
30896;SDS011;64229;52.246;21.054;2023-01-23T15:29:49;47.08;;;19.50;;
30896;SDS011;64229;52.246;21.054;2023-01-23T15:32:16;43.05;;;19.00;;
30896;SDS011;64229;52.246;21.054;2023-01-23T15:34:53;45.88;;;18.67;;
30896;SDS011;64229;52.246;21.054;2023-01-23T15:37:22;52.35;;;19.15;;
30896;SDS011;64229;52.246;21.054;2023-01-23T15:44:48;51.28;;;20.95;;
30896;SDS011;64229;52.246;21.054;2023-01-23T15:47:14;51.00;;;20.40;;
30896;SDS011;64229;52.246;21.054;2023-01-23T15:49:39;53.67;;;19.90;;
30896;SDS011;64229;52.246;21.054;2023-01-23T15:52:24;46.53;;;19.08;;
30896;SDS011;64229;52.246;21.054;2023-01-23T15:54:53;48.15;;;19.67;;
30896;SDS011;64229;52.246;21.054;2023-01-23T15:57:21;46.88;;;19.63;;
30896;SDS011;64229;52.246;21.054;2023-01-23T15:59:47;49.50;;;20.23;;
30896;SDS011;64229;52.246;21.054;2023-01-23T16:02:14;46.50;;;19.58;;
30896;SDS011;64229;52.246;21.054;2023-01-23T16:04:41;42.90;;;19.02;;
30896;SDS011;64229;52.246;21.054;2023-01-23T16:07:06;48.13;;;20.75;;
30896;SDS011;64229;52.246;21.054;2023-01-23T16:09:47;47.17;;;20.20;;
30896;SDS011;64229;52.246;21.054;2023-01-23T16:12:18;45.00;;;18.08;;
30896;SDS011;64229;52.246;21.054;2023-01-23T16:14:45;39.25;;;18.25;;
30896;SDS011;64229;52.246;21.054;2023-01-23T16:17:11;45.40;;;20.48;;